EHMG

L9-ff-1 Sea

L9-ff-1 Sea, The Netherlands
METAR EHMG 171155Z AUTO 17014KT 3800 BR OVC002 06/05 Q1013 W///H///
Observed Flight Rules
Dec-17 @ 11:55 UTC (35 minutes ago) Instrument Flight Rules
Wind Visibility Clouds Conditions
170° at 14 knots 3,798 meters
  • Overcast at 200' AGL
  • Mist
Temperatures Readings
Current 6°C / 43°F
Dewpoint 5°C / 41°F
Humidity 93%
Altimeter 29.91" Hg
Pressure 1013 hPa
Elevation 50
METAR EHMG 171155Z AUTO 17014KT 3800 BR OVC002 06/05 Q1013 W///H///
Observed Flight Rules
Dec-17 @ 11:55 UTC
(35 minutes ago)
LIFR
Wind Visibility
170° at 14 knots 3,798 meters
Clouds
  • Overcast at 200' AGL
Conditions
  • Mist
Temperature Dewpoint
6°C / 43°F 5°C / 41°F
Humidity Altimeter Pressure
93% 29.91" Hg 1013 hPa